Time;durP1;ratioP1;P1;durP2;ratioP2;P2;SDS_P1;SDS_P2;PMS_P1;PMS_P2;Temp;Humidity;BMP_temperature;BMP_pressure;BME280_temperature;BME280_humidity;BME280_pressure;Samples;Min_cycle;Max_cycle;Signal;HPM_P1;HPM_P2
2022/10/20 00:03:44;;;;;;;31.55;13.65;;;;;;;9.47;100.00;100166.16;12220499;19;20021;-80
2022/10/20 00:07:46;;;;;;;28.40;12.63;;;;;;;9.41;100.00;100167.09;12199665;19;20128;-80
2022/10/20 00:11:48;;;;;;;31.98;15.27;;;;;;;9.38;100.00;100167.56;12217211;19;20014;-80
2022/10/20 00:15:51;;;;;;;31.20;13.85;;;;;;;9.34;100.00;100166.38;12207472;19;20014;-79
2022/10/20 00:19:52;;;;;;;;;;;;;;;9.29;100.00;100146.97;12200427;19;20070;-79
2022/10/20 00:23:55;;;;;;;29.48;12.48;;;;;;;9.26;100.00;100147.44;12216210;19;19910;-80
2022/10/20 00:27:56;;;;;;;30.30;14.23;;;;;;;9.21;100.00;100136.28;12221677;19;20046;-80
2022/10/20 00:31:58;;;;;;;28.27;14.55;;;;;;;9.20;100.00;100140.94;12196417;19;20043;-80
2022/10/20 00:36:01;;;;;;;30.63;13.40;;;;;;;9.19;100.00;100130.19;12215738;19;20014;-80
2022/10/20 00:40:03;;;;;;;28.60;13.18;;;;;;;9.18;100.00;100129.34;12216729;19;20002;-80
2022/10/20 00:44:42;;;;;;;30.23;13.85;;;;;;;9.17;100.00;100118.59;12190995;19;20499;-79
2022/10/20 00:48:47;;;;;;;29.70;12.82;;;;;;;9.15;100.00;100117.97;12217689;19;20025;-80
2022/10/20 00:52:52;;;;;;;31.40;13.05;;;;;;;9.15;100.00;100115.22;12194491;19;20010;-80
2022/10/20 00:56:55;;;;;;;30.42;13.05;;;;;;;9.11;100.00;100101.94;12212864;19;20007;-80
2022/10/20 01:00:59;;;;;;;28.20;12.23;;;;;;;9.10;100.00;100092.03;12219627;19;20024;-80
2022/10/20 01:05:01;;;;;;;30.25;13.30;;;;;;;9.10;100.00;100083.78;12192541;19;20019;-79
2022/10/20 01:09:03;;;;;;;30.00;13.27;;;;;;;9.07;100.00;100084.25;12216444;19;20029;-80
2022/10/20 01:13:22;;;;;;;33.03;13.02;;;;;;;9.06;100.00;100081.72;12210746;19;20022;-80
2022/10/20 01:17:41;;;;;;;27.38;13.40;;;;;;;9.06;100.00;100076.22;12190967;19;20377;-79
2022/10/20 01:22:08;;;;;;;39.95;13.32;;;;;;;9.06;100.00;100063.31;12213760;19;20006;-79
2022/10/20 01:26:31;;;;;;;27.77;13.02;;;;;;;9.00;100.00;100072.50;12191724;19;20006;-79
2022/10/20 01:30:43;;;;;;;26.00;12.15;;;;;;;8.94;100.00;100076.19;12217506;19;20013;-81
2022/10/20 01:34:47;;;;;;;25.25;12.13;;;;;;;8.94;100.00;100073.44;12190291;19;20006;-81
2022/10/20 01:39:19;;;;;;;26.42;11.57;;;;;;;8.95;100.00;100069.59;12207539;19;20086;-81
2022/10/20 01:43:24;;;;;;;32.60;13.05;;;;;;;8.96;100.00;100079.53;12191402;19;20018;-80
2022/10/20 01:47:27;;;;;;;38.00;12.90;;;;;;;8.97;100.00;100083.13;12214940;19;20014;-80
2022/10/20 01:51:29;;;;;;;32.80;11.82;;;;;;;8.97;100.00;100070.22;12214254;19;20066;-79
2022/10/20 01:55:31;;;;;;;28.55;12.73;;;;;;;8.99;100.00;100081.81;12197029;19;20026;-79
2022/10/20 01:59:54;;;;;;;26.35;11.93;;;;;;;8.97;100.00;100077.63;12270811;19;20013;-80
2022/10/20 02:04:00;;;;;;;30.50;12.93;;;;;;;8.95;100.00;100069.59;12243524;19;20006;-81
2022/10/20 02:08:43;;;;;;;30.20;12.80;;;;;;;8.96;100.00;100059.47;12196079;19;20243;-80
2022/10/20 02:12:51;;;;;;;28.70;11.55;;;;;;;8.95;100.00;100046.78;12214982;19;20467;-80
2022/10/20 02:17:01;;;;;;;26.75;12.13;;;;;;;8.96;100.00;100029.25;12193364;19;20365;-80
2022/10/20 02:21:04;;;;;;;23.70;11.57;;;;;;;8.96;100.00;100021.00;12206088;19;20010;-80
2022/10/20 02:25:10;;;;;;;27.10;13.27;;;;;;;8.96;100.00;100018.25;12213993;19;20025;-79
2022/10/20 02:29:16;;;;;;;34.25;12.20;;;;;;;8.98;100.00;100024.31;12190223;19;20045;-80
2022/10/20 02:33:19;;;;;;;25.13;12.20;;;;;;;9.00;100.00;100016.69;12214775;19;20122;-80
2022/10/20 02:37:21;;;;;;;26.52;13.95;;;;;;;9.05;100.00;100009.41;12191491;19;20003;-80
2022/10/20 02:41:22;;;;;;;26.98;12.57;;;;;;;9.07;100.00;100001.78;12213885;19;20021;-79
2022/10/20 02:45:24;;;;;;;22.67;12.45;;;;;;;9.10;100.00;99990.31;12212903;19;20007;-80
2022/10/20 02:49:26;;;;;;;22.35;11.15;;;;;;;9.10;100.00;99992.19;12194303;19;20015;-80
2022/10/20 02:53:27;;;;;;;22.27;12.10;;;;;;;9.11;100.00;100013.97;12214464;19;20050;-81
2022/10/20 02:57:29;;;;;;;21.50;10.57;;;;;;;9.13;100.00;100013.72;12216099;19;20010;-81
2022/10/20 03:01:31;;;;;;;26.33;11.23;;;;;;;9.13;100.00;100016.47;12195702;19;20010;-81
2022/10/20 03:05:38;;;;;;;25.42;11.90;;;;;;;9.12;100.00;100020.31;12210422;19;20869;-81
2022/10/20 03:09:39;;;;;;;27.00;11.50;;;;;;;9.14;100.00;100015.41;12212106;19;20013;-80
2022/10/20 03:13:41;;;;;;;22.13;10.98;;;;;;;9.15;100.00;100014.34;12185241;19;20074;-80
2022/10/20 03:17:42;;;;;;;25.10;10.82;;;;;;;9.15;100.00;100013.50;12209065;19;20368;-80
2022/10/20 03:21:45;;;;;;;26.30;11.23;;;;;;;9.11;100.00;100004.91;12208507;19;20002;-80
2022/10/20 03:25:47;;;;;;;20.90;11.80;;;;;;;9.07;100.00;100001.78;12185915;19;20010;-79
2022/10/20 03:29:49;;;;;;;22.17;11.60;;;;;;;9.07;100.00;100003.66;12210574;19;20011;-79
2022/10/20 03:33:50;;;;;;;24.67;10.40;;;;;;;9.06;100.00;100004.75;12207688;19;20079;-80
2022/10/20 03:37:52;;;;;;;24.10;11.10;;;;;;;9.03;100.00;100011.56;12186280;19;20119;-81
2022/10/20 03:41:53;;;;;;;22.27;10.82;;;;;;;9.04;100.00;100006.88;12209134;19;20078;-80
2022/10/20 03:46:08;;;;;;;24.20;11.45;;;;;;;9.06;100.00;99993.75;12208770;19;20034;-80
2022/10/20 03:50:09;;;;;;;26.15;11.00;;;;;;;9.10;100.00;99981.22;12185532;19;20014;-80
2022/10/20 03:54:11;;;;;;;22.38;10.43;;;;;;;9.10;100.00;99979.31;12205428;19;20034;-79
2022/10/20 03:58:13;;;;;;;24.83;11.13;;;;;;;9.11;100.00;99966.41;12185833;19;20058;-80
2022/10/20 04:02:28;;;;;;;22.70;10.57;;;;;;;9.09;100.00;99958.38;12206715;19;20015;-79
2022/10/20 04:06:31;;;;;;;26.58;11.65;;;;;;;9.09;100.00;99949.31;12205492;19;20011;-79
2022/10/20 04:10:33;;;;;;;25.88;10.65;;;;;;;9.07;100.00;99929.44;12184515;19;20011;-80
2022/10/20 04:14:34;;;;;;;20.45;10.57;;;;;;;9.07;100.00;99922.06;12207092;19;20475;-80
2022/10/20 04:18:37;;;;;;;22.25;11.50;;;;;;;9.07;100.00;99915.72;12211414;19;20011;-80
2022/10/20 04:22:39;;;;;;;23.88;11.38;;;;;;;9.08;100.00;99904.50;12195004;19;20039;-79
2022/10/20 04:26:41;;;;;;;20.48;11.38;;;;;;;9.11;100.00;99909.50;12217853;19;20744;-79
2022/10/20 04:30:43;;;;;;;23.27;11.43;;;;;;;9.12;100.00;99911.16;12245846;19;20011;-80
2022/10/20 04:34:45;;;;;;;20.55;10.63;;;;;;;9.19;100.00;99922.09;12239076;19;20014;-80
2022/10/20 04:38:46;;;;;;;18.83;10.10;;;;;;;9.27;100.00;99932.69;12268053;19;20101;-80
2022/10/20 04:42:48;;;;;;;21.33;10.65;;;;;;;9.29;100.00;99944.31;12239735;19;20019;-81
2022/10/20 04:46:49;;;;;;;21.90;10.07;;;;;;;9.29;100.00;99943.47;12202742;19;20098;-80
2022/10/20 04:51:06;;;;;;;24.13;11.10;;;;;;;9.35;100.00;99931.53;12218807;19;20014;-80
2022/10/20 04:55:08;;;;;;;20.58;11.60;;;;;;;9.39;100.00;99902.44;12213948;19;20074;-81
2022/10/20 04:59:09;;;;;;;22.73;10.98;;;;;;;9.40;100.00;99901.41;12200678;19;20017;-80
2022/10/20 05:03:14;;;;;;;27.83;11.70;;;;;;;9.39;100.00;99896.94;12215870;19;20096;-81
2022/10/20 05:07:16;;;;;;;22.10;11.00;;;;;;;9.44;100.00;99886.06;12192066;19;20034;-79
2022/10/20 05:11:19;;;;;;;25.85;12.45;;;;;;;9.51;100.00;99870.28;12215703;19;20479;-79
2022/10/20 05:15:21;;;;;;;23.13;11.77;;;;;;;9.55;100.00;99867.91;12213016;19;21643;-79
2022/10/20 05:19:23;;;;;;;22.70;11.82;;;;;;;9.65;100.00;99870.03;12197222;19;20034;-81
2022/10/20 05:23:24;;;;;;;23.30;12.98;;;;;;;9.79;100.00;99868.69;12212485;19;20022;-80
2022/10/20 05:27:27;;;;;;;19.95;11.77;;;;;;;9.89;100.00;99859.78;12216382;19;20088;-79
2022/10/20 05:31:28;;;;;;;26.50;12.85;;;;;;;9.96;100.00;99855.78;12185339;19;20027;-79
2022/10/20 05:35:30;;;;;;;24.45;12.38;;;;;;;10.02;100.00;99842.97;12206599;19;20011;-80
2022/10/20 05:39:32;;;;;;;23.40;12.32;;;;;;;10.10;100.00;99828.81;12214463;19;20101;-79
2022/10/20 05:43:33;;;;;;;27.52;11.80;;;;;;;10.13;100.00;99825.56;12193519;19;20014;-79
2022/10/20 05:47:35;;;;;;;32.58;13.18;;;;;;;10.15;100.00;99822.59;12212998;19;20007;-78
2022/10/20 05:51:37;;;;;;;23.25;12.48;;;;;;;10.17;100.00;99835.03;12211394;19;20018;-79
2022/10/20 05:55:38;;;;;;;27.52;13.40;;;;;;;10.22;100.00;99831.53;12189366;19;20417;-78
2022/10/20 05:59:40;;;;;;;30.10;13.75;;;;;;;10.25;100.00;99825.53;12202601;19;20034;-79
2022/10/20 06:03:46;;;;;;;25.88;13.70;;;;;;;10.26;100.00;99832.69;12179300;19;20439;-79
2022/10/20 06:07:48;;;;;;;29.05;13.25;;;;;;;10.27;100.00;99834.41;12183356;19;20017;-79
2022/10/20 06:11:50;;;;;;;31.95;14.15;;;;;;;10.25;100.00;99831.84;12208063;19;20058;-78
2022/10/20 06:15:52;;;;;;;24.67;13.82;;;;;;;10.38;100.00;99824.41;12212671;19;20018;-79
2022/10/20 06:19:53;;;;;;;26.25;13.32;;;;;;;10.39;100.00;99835.19;12193122;19;20019;-80
2022/10/20 06:24:00;;;;;;;26.23;13.45;;;;;;;10.46;100.00;99844.09;12214463;19;20038;-80
2022/10/20 06:28:02;;;;;;;23.88;13.02;;;;;;;10.48;100.00;99841.94;12216350;19;20027;-80
2022/10/20 06:32:04;;;;;;;23.00;13.65;;;;;;;10.57;100.00;99839.63;12190863;19;20013;-79
2022/10/20 06:36:06;;;;;;;25.43;13.80;;;;;;;10.58;100.00;99851.47;12211275;19;20018;-79
2022/10/20 06:40:08;;;;;;;23.63;13.13;;;;;;;10.65;100.00;99850.25;12214207;19;20511;-80
2022/10/20 06:44:11;;;;;;;31.30;14.20;;;;;;;10.65;100.00;99863.19;12188922;19;20287;-80
2022/10/20 06:48:12;;;;;;;26.40;14.38;;;;;;;10.70;100.00;99879.78;12213724;19;20007;-79
2022/10/20 06:52:14;;;;;;;25.52;14.32;;;;;;;10.79;100.00;99905.84;12192575;19;20081;-80
2022/10/20 06:56:24;;;;;;;26.52;12.88;;;;;;;10.90;100.00;99907.72;12214780;19;20457;-80
2022/10/20 07:00:26;;;;;;;35.63;15.18;;;;;;;11.03;100.00;99912.06;12223072;19;20010;-82
2022/10/20 07:04:27;;;;;;;21.85;13.10;;;;;;;11.16;100.00;99897.13;12243567;19;20006;-80
2022/10/20 07:08:31;;;;;;;26.45;14.15;;;;;;;11.20;100.00;99908.47;12264883;19;20011;-81
2022/10/20 07:12:33;;;;;;;27.40;13.73;;;;;;;11.33;100.00;99906.22;12242980;19;20010;-81
2022/10/20 07:16:36;;;;;;;23.93;13.87;;;;;;;11.53;100.00;99902.06;12197565;19;20034;-81
2022/10/20 07:20:37;;;;;;;22.55;13.68;;;;;;;11.61;100.00;99893.38;12221027;19;20011;-80
2022/10/20 07:24:42;;;;;;;32.08;15.15;;;;;;;11.68;100.00;99896.75;12263042;19;20015;-81
2022/10/20 07:28:51;;;;;;;22.02;12.68;;;;;;;11.82;100.00;99900.81;12239466;19;20010;-80
2022/10/20 07:32:56;;;;;;;22.90;12.47;;;;;;;12.07;100.00;99875.47;12217546;19;20011;-81
2022/10/20 07:36:58;;;;;;;24.33;13.73;;;;;;;12.32;100.00;99882.41;12215786;19;20040;-81
2022/10/20 07:41:01;;;;;;;22.90;12.30;;;;;;;12.40;100.00;99890.22;12194136;19;20011;-79
2022/10/20 07:45:03;;;;;;;21.00;12.20;;;;;;;12.49;100.00;99880.38;12217072;19;20036;-80
2022/10/20 07:49:05;;;;;;;25.67;12.47;;;;;;;12.61;100.00;99868.31;12217486;19;20026;-80
2022/10/20 07:53:27;;;;;;;24.77;12.20;;;;;;;12.70;100.00;99875.88;12199372;19;20010;-79
2022/10/20 07:57:28;;;;;;;26.50;12.68;;;;;;;12.94;100.00;99897.66;12223453;19;20023;-78
2022/10/20 08:01:30;;;;;;;23.27;12.82;;;;;;;13.14;100.00;99908.03;12202658;19;19999;-78
2022/10/20 08:05:32;;;;;;;25.83;12.57;;;;;;;13.20;100.00;99904.22;12222209;19;20501;-78
2022/10/20 08:09:34;;;;;;;22.50;12.65;;;;;;;13.28;100.00;99883.56;12224045;19;20024;-79
2022/10/20 08:13:37;;;;;;;23.63;13.35;;;;;;;13.33;100.00;99881.66;12197479;19;20468;-79
2022/10/20 08:17:38;;;;;;;26.67;13.25;;;;;;;13.38;100.00;99890.00;12222958;19;20090;-79
2022/10/20 08:21:40;;;;;;;21.40;13.13;;;;;;;13.43;100.00;99886.44;12228082;19;20025;-78
2022/10/20 08:25:41;;;;;;;30.38;13.30;;;;;;;13.49;100.00;99885.38;12201430;19;20479;-79
2022/10/20 08:29:43;;;;;;;23.58;12.68;;;;;;;13.48;100.00;99869.88;12226927;19;20022;-79
2022/10/20 08:34:05;;;;;;;24.60;13.07;;;;;;;13.77;100.00;99875.00;12220890;19;20038;-79
2022/10/20 08:38:07;;;;;;;27.45;12.35;;;;;;;13.85;100.00;99874.47;12194146;19;20018;-78
2022/10/20 08:42:09;;;;;;;18.20;11.85;;;;;;;14.09;100.00;99861.00;12221436;19;20014;-79
2022/10/20 08:46:16;;;;;;;26.23;13.50;;;;;;;14.20;100.00;99864.66;12207270;19;20099;-79
2022/10/20 08:50:43;;;;;;;21.08;12.02;;;;;;;14.29;100.00;99858.28;12221073;19;20014;-81
2022/10/20 08:54:50;;;;;;;22.58;11.70;;;;;;;14.27;100.00;99849.41;12221853;19;20010;-79
2022/10/20 08:58:52;;;;;;;20.65;12.40;;;;;;;14.11;100.00;99845.78;12197576;19;20006;-79
2022/10/20 09:02:54;;;;;;;22.98;11.77;;;;;;;13.94;100.00;99860.94;12218776;19;20034;-78
2022/10/20 09:06:59;;;;;;;29.63;13.02;;;;;;;13.93;100.00;99860.13;12220792;19;20011;-79
2022/10/20 09:11:03;;;;;;;20.95;12.77;;;;;;;14.20;100.00;99867.41;12200432;19;20014;-80
2022/10/20 09:15:07;;;;;;;21.30;11.55;;;;;;;14.29;100.00;99835.28;12214692;19;20038;-78
2022/10/20 09:19:16;;;;;;;21.95;12.15;;;;;;;14.41;100.00;99851.69;12221691;19;20003;-79
2022/10/20 09:23:24;;;;;;;21.92;11.30;;;;;;;14.61;100.00;99848.97;12199051;19;20047;-80
2022/10/20 09:27:43;;;;;;;;;;;;;;;14.73;100.00;99857.03;12223509;19;20015;-80
2022/10/20 09:31:48;;;;;;;20.65;11.85;;;;;;;14.90;100.00;99853.97;12198084;19;19915;-80
2022/10/20 09:35:51;;;;;;;20.90;10.43;;;;;;;15.12;100.00;99860.06;12211171;19;20137;-77
2022/10/20 09:39:57;;;;;;;18.50;11.15;;;;;;;15.30;100.00;99868.94;12215631;19;20014;-78
2022/10/20 09:44:07;;;;;;;23.10;11.68;;;;;;;15.48;100.00;99866.41;12199646;19;20421;-77
2022/10/20 09:48:24;;;;;;;26.23;11.43;;;;;;;15.39;100.00;99873.63;12216026;19;20010;-77
2022/10/20 09:52:33;;;;;;;18.50;10.02;;;;;;;15.46;100.00;99860.28;12191178;19;20018;-78
2022/10/20 09:56:37;;;;;;;18.85;10.68;;;;;;;15.59;100.00;99856.09;12210317;19;20014;-77
2022/10/20 10:00:46;;;;;;;21.90;10.00;;;;;;;15.90;100.00;99858.81;12216038;19;20002;-79
2022/10/20 10:04:50;;;;;;;16.08;8.85;;;;;;;16.06;100.00;99854.84;12187866;19;20017;-78
2022/10/20 10:08:52;;;;;;;13.80;9.20;;;;;;;16.16;100.00;99854.78;12209238;19;20845;-78
2022/10/20 10:12:59;;;;;;;15.50;9.13;;;;;;;16.13;100.00;99843.41;12205423;19;20078;-77
2022/10/20 10:17:01;;;;;;;21.38;9.52;;;;;;;16.09;100.00;99853.44;12179579;19;20018;-77
2022/10/20 10:21:06;;;;;;;17.90;9.77;;;;;;;16.11;100.00;99856.75;12207692;19;20003;-77
2022/10/20 10:25:24;;;;;;;16.75;9.48;;;;;;;15.91;100.00;99843.78;12190059;19;20329;-79
2022/10/20 10:29:32;;;;;;;15.88;8.98;;;;;;;15.90;100.00;99844.91;12192751;19;20014;-78
2022/10/20 10:33:39;;;;;;;16.15;9.57;;;;;;;15.80;100.00;99834.69;12211541;19;20350;-78
2022/10/20 10:37:45;;;;;;;15.90;8.48;;;;;;;15.86;100.00;99833.53;12190599;19;20014;-77
2022/10/20 10:42:12;;;;;;;15.98;9.43;;;;;;;16.02;100.00;99809.28;12211686;19;20019;-77
2022/10/20 10:46:18;;;;;;;14.88;9.10;;;;;;;16.17;100.00;99805.56;12191292;19;20034;-78
2022/10/20 10:50:59;;;;;;;17.23;9.80;;;;;;;16.18;100.00;99818.34;12211005;19;20023;-77
2022/10/20 10:55:14;;;;;;;19.15;8.82;;;;;;;16.35;100.00;99807.69;12211583;19;20002;-78
2022/10/20 10:59:39;;;;;;;;;;;;;;;16.78;100.00;99791.28;12190917;19;20027;-78
2022/10/20 11:04:04;;;;;;;16.15;9.48;;;;;;;17.11;100.00;99768.44;12212908;19;19938;-78
2022/10/20 11:08:29;;;;;;;16.85;9.50;;;;;;;17.28;100.00;99752.91;12190090;19;20085;-79
2022/10/20 11:12:48;;;;;;;16.50;9.05;;;;;;;17.33;100.00;99752.00;12209559;19;20051;-79
2022/10/20 11:16:59;;;;;;;15.60;9.30;;;;;;;17.15;100.00;99759.16;12184967;19;20467;-78
2022/10/20 11:21:27;;;;;;;18.27;8.60;;;;;;;17.36;100.00;99782.06;12211804;19;20094;-78
2022/10/20 11:25:50;;;;;;;15.75;8.65;;;;;;;17.49;99.50;99778.56;12187921;19;20352;-79
2022/10/20 11:29:53;;;;;;;15.18;8.45;;;;;;;17.54;100.00;99766.53;12223584;19;20073;-78
2022/10/20 11:34:13;;;;;;;15.30;8.98;;;;;;;17.61;100.00;99761.44;12221354;19;20131;-78
2022/10/20 11:38:42;;;;;;;14.43;8.68;;;;;;;17.56;100.00;99760.69;12194753;19;20011;-78
2022/10/20 11:43:16;;;;;;;15.48;8.80;;;;;;;17.46;100.00;99762.47;12219374;19;20078;-79
2022/10/20 11:47:35;;;;;;;12.18;7.88;;;;;;;17.52;100.00;99774.38;12196520;19;20393;-78
2022/10/20 11:52:01;;;;;;;17.73;8.25;;;;;;;17.51;100.00;99772.69;12217515;19;20010;-79
2022/10/20 11:56:20;;;;;;;15.15;8.60;;;;;;;17.40;100.00;99760.00;12193158;19;20027;-79
2022/10/20 12:00:51;;;;;;;16.85;9.13;;;;;;;17.22;100.00;99759.66;12217066;19;20021;-79
2022/10/20 12:05:33;;;;;;;12.93;8.73;;;;;;;17.07;100.00;99771.78;12196447;19;20540;-78
2022/10/20 12:09:54;;;;;;;12.38;8.30;;;;;;;17.06;100.00;99772.06;12221578;19;20827;-78
2022/10/20 12:14:14;;;;;;;16.00;9.05;;;;;;;17.05;100.00;99776.00;12196961;19;20029;-78
2022/10/20 12:18:29;;;;;;;14.32;8.43;;;;;;;17.03;100.00;99778.22;12214244;19;20014;-78
2022/10/20 12:22:39;;;;;;;15.32;8.82;;;;;;;17.11;100.00;99780.38;12194000;19;20099;-78
2022/10/20 12:27:01;;;;;;;17.15;9.55;;;;;;;17.05;100.00;99792.69;12214669;19;20026;-79
2022/10/20 12:31:04;;;;;;;13.30;8.75;;;;;;;16.91;100.00;99773.06;12219732;19;20475;-79
2022/10/20 12:35:10;;;;;;;16.52;9.18;;;;;;;16.71;100.00;99781.56;12201746;19;20022;-79
2022/10/20 12:39:11;;;;;;;17.92;9.88;;;;;;;16.60;100.00;99766.91;12260285;19;20040;-78
2022/10/20 12:43:35;;;;;;;18.10;10.23;;;;;;;16.60;100.00;99753.00;12242195;19;20025;-79
2022/10/20 12:47:36;;;;;;;18.48;9.73;;;;;;;16.67;100.00;99742.34;12271074;19;20007;-78
2022/10/20 12:51:49;;;;;;;17.23;9.02;;;;;;;16.75;100.00;99732.56;12271437;19;20039;-78
2022/10/20 12:55:58;;;;;;;25.40;9.98;;;;;;;16.87;100.00;99746.13;12218200;19;20003;-78
2022/10/20 13:00:06;;;;;;;15.63;9.73;;;;;;;16.94;100.00;99768.88;12222724;19;20014;-80
2022/10/20 13:04:46;;;;;;;21.52;10.68;;;;;;;16.96;100.00;99761.06;12218866;19;20007;-81
2022/10/20 13:09:16;;;;;;;18.58;10.27;;;;;;;17.00;100.00;99770.47;12116143;19;2004409;-79
2022/10/20 13:13:20;;;;;;;20.60;9.57;;;;;;;17.01;100.00;99769.34;12190704;19;20014;-79
2022/10/20 13:17:36;;;;;;;20.80;10.00;;;;;;;16.98;100.00;99747.66;12214553;19;20011;-82
2022/10/20 13:21:40;;;;;;;16.00;9.68;;;;;;;16.99;100.00;99735.41;12212474;19;20081;-80
2022/10/20 13:25:54;;;;;;;21.48;11.20;;;;;;;16.89;100.00;99738.28;12187287;19;20006;-79
2022/10/20 13:29:57;;;;;;;18.33;10.02;;;;;;;16.97;100.00;99746.00;12211287;19;20052;-80
2022/10/20 13:34:20;;;;;;;16.50;10.25;;;;;;;17.03;100.00;99722.56;12213349;19;20006;-80
2022/10/20 13:38:43;;;;;;;18.13;10.80;;;;;;;17.04;100.00;99718.63;12194429;19;20618;-80
2022/10/20 13:43:03;;;;;;;16.30;9.70;;;;;;;17.02;100.00;99704.22;12212454;19;20011;-80
2022/10/20 13:47:12;;;;;;;16.80;9.70;;;;;;;16.91;100.00;99699.88;12190826;19;20006;-80
2022/10/20 13:51:24;;;;;;;17.75;10.18;;;;;;;16.79;100.00;99708.63;12214598;19;20014;-80
2022/10/20 13:55:29;;;;;;;20.37;10.43;;;;;;;16.68;100.00;99699.50;12193323;19;20014;-79
2022/10/20 13:59:31;;;;;;;17.27;10.05;;;;;;;16.63;100.00;99692.03;12214862;19;20362;-79
2022/10/20 14:03:44;;;;;;;19.58;10.60;;;;;;;16.49;100.00;99679.94;12214492;19;20506;-79
2022/10/20 14:07:45;;;;;;;17.65;10.35;;;;;;;16.33;100.00;99668.13;12193975;19;20014;-80
2022/10/20 14:12:02;;;;;;;20.52;11.27;;;;;;;16.21;100.00;99700.19;12214409;19;20010;-79
2022/10/20 14:16:06;;;;;;;16.80;11.43;;;;;;;16.10;100.00;99716.13;12216720;19;20376;-80
2022/10/20 14:20:20;;;;;;;19.70;11.80;;;;;;;16.01;100.00;99728.97;12187785;19;20377;-80
2022/10/20 14:24:33;;;;;;;19.35;11.93;;;;;;;15.95;100.00;99737.34;12210035;19;20007;-79
2022/10/20 14:28:38;;;;;;;20.80;12.35;;;;;;;15.85;100.00;99720.72;12191813;19;20010;-80
2022/10/20 14:32:40;;;;;;;21.88;12.18;;;;;;;15.72;100.00;99715.81;12213218;19;20035;-80
2022/10/20 14:36:43;;;;;;;21.00;12.75;;;;;;;15.66;100.00;99726.06;12227380;19;19999;-77
2022/10/20 14:40:53;;;;;;;24.27;12.27;;;;;;;15.62;100.00;99721.38;12233110;19;20015;-78
2022/10/20 14:44:56;;;;;;;23.05;11.60;;;;;;;15.60;100.00;99695.84;12252967;19;20076;-78
2022/10/20 14:48:59;;;;;;;27.65;14.02;;;;;;;15.52;100.00;99699.22;12218888;19;20111;-79
2022/10/20 14:53:37;;;;;;;30.38;15.18;;;;;;;15.41;100.00;99715.09;12189822;19;20348;-80
2022/10/20 14:57:43;;;;;;;21.45;13.05;;;;;;;15.35;100.00;99718.97;12212823;19;20791;-80
2022/10/20 15:02:11;;;;;;;22.05;14.10;;;;;;;15.36;100.00;99723.44;12189577;19;20007;-76
2022/10/20 15:06:17;;;;;;;27.13;14.48;;;;;;;15.25;100.00;99725.41;12212833;19;20010;-80
2022/10/20 15:10:24;;;;;;;23.73;14.27;;;;;;;15.14;100.00;99705.22;12189615;19;20007;-79
2022/10/20 15:14:26;;;;;;;25.27;14.80;;;;;;;15.11;100.00;99694.66;12205064;19;20231;-78
2022/10/20 15:18:28;;;;;;;31.67;16.03;;;;;;;15.12;100.00;99692.72;12207294;19;20023;-79
2022/10/20 15:22:30;;;;;;;25.73;14.53;;;;;;;15.08;100.00;99686.06;12182519;19;20018;-80
2022/10/20 15:26:32;;;;;;;31.50;16.30;;;;;;;15.00;100.00;99677.22;12209153;19;20011;-80
2022/10/20 15:30:34;;;;;;;26.20;16.23;;;;;;;14.97;100.00;99654.75;12213948;19;20038;-80
2022/10/20 15:34:35;;;;;;;46.08;26.92;;;;;;;14.96;100.00;99664.16;12188063;19;20043;-80
2022/10/20 15:38:43;;;;;;;37.90;21.55;;;;;;;14.96;100.00;99653.94;12213736;19;20014;-78
2022/10/20 15:42:45;;;;;;;31.13;16.95;;;;;;;14.94;100.00;99642.28;12211100;19;20021;-78
2022/10/20 15:46:49;;;;;;;34.95;16.23;;;;;;;14.92;100.00;99638.94;12188548;19;20019;-81
2022/10/20 15:50:55;;;;;;;27.52;15.10;;;;;;;14.93;100.00;99653.63;12211285;19;20017;-79
2022/10/20 15:54:58;;;;;;;25.40;14.25;;;;;;;14.90;100.00;99651.44;12210922;19;20093;-81
2022/10/20 15:59:07;;;;;;;27.23;15.13;;;;;;;14.88;100.00;99651.72;12188747;19;20426;-81
2022/10/20 16:03:16;;;;;;;27.80;14.25;;;;;;;14.88;100.00;99642.59;12211146;19;20157;-81
2022/10/20 16:07:18;;;;;;;27.17;14.45;;;;;;;14.87;100.00;99627.03;12190033;19;20014;-78
2022/10/20 16:11:21;;;;;;;27.60;15.00;;;;;;;14.85;100.00;99635.66;12212792;19;20026;-79
2022/10/20 16:15:23;;;;;;;26.13;15.88;;;;;;;14.83;100.00;99640.63;12221681;19;20041;-81
2022/10/20 16:19:31;;;;;;;28.52;14.80;;;;;;;14.80;100.00;99616.25;12202647;19;20015;-81
2022/10/20 16:23:35;;;;;;;31.45;16.92;;;;;;;14.77;100.00;99614.03;12220407;19;20014;-81
2022/10/20 16:27:42;;;;;;;34.05;17.63;;;;;;;14.72;100.00;99630.69;12222856;19;20006;-81
2022/10/20 16:31:46;;;;;;;31.40;16.42;;;;;;;14.67;100.00;99636.25;12196422;19;20434;-79
2022/10/20 16:35:48;;;;;;;29.52;16.60;;;;;;;14.65;100.00;99630.97;12217858;19;20087;-79
2022/10/20 16:39:49;;;;;;;27.00;16.20;;;;;;;14.62;100.00;99636.28;12220889;19;20459;-78
2022/10/20 16:43:51;;;;;;;44.75;25.25;;;;;;;14.55;100.00;99620.75;12194418;19;20086;-78
2022/10/20 16:47:56;;;;;;;42.58;23.08;;;;;;;14.58;100.00;99620.19;12218692;19;20014;-80
2022/10/20 16:52:01;;;;;;;36.38;21.85;;;;;;;14.59;100.00;99619.06;12218012;19;20014;-79
2022/10/20 16:56:04;;;;;;;30.73;15.85;;;;;;;14.56;100.00;99605.78;12196657;19;20396;-79
2022/10/20 17:00:08;;;;;;;37.33;17.15;;;;;;;14.56;100.00;99597.44;12227891;19;20018;-80
2022/10/20 17:04:10;;;;;;;32.40;15.75;;;;;;;14.56;100.00;99616.03;12217951;19;20673;-80
2022/10/20 17:08:12;;;;;;;33.47;16.33;;;;;;;14.57;100.00;99626.00;12199680;19;20471;-80
2022/10/20 17:12:14;;;;;;;30.10;15.85;;;;;;;14.57;100.00;99629.63;12218460;19;20372;-80
2022/10/20 17:16:21;;;;;;;34.53;17.08;;;;;;;14.57;100.00;99634.31;12207774;19;20011;-79
2022/10/20 17:20:29;;;;;;;34.47;18.20;;;;;;;14.61;100.00;99640.16;12215968;19;20033;-79
2022/10/20 17:24:30;;;;;;;33.42;17.85;;;;;;;14.62;100.00;99647.34;12210562;19;20072;-79
2022/10/20 17:28:34;;;;;;;39.25;18.05;;;;;;;14.63;100.00;99643.47;12198107;19;20014;-79
2022/10/20 17:32:36;;;;;;;32.88;18.10;;;;;;;14.64;100.00;99642.38;12217920;19;20055;-79
2022/10/20 17:36:38;;;;;;;35.00;16.67;;;;;;;14.63;100.00;99633.19;12216585;19;20011;-79
2022/10/20 17:40:40;;;;;;;37.30;17.83;;;;;;;14.57;100.00;99649.03;12193866;19;20240;-78
2022/10/20 17:44:42;;;;;;;58.13;31.80;;;;;;;14.57;100.00;99662.06;12216265;19;20037;-78
2022/10/20 17:48:45;;;;;;;38.42;19.85;;;;;;;14.55;100.00;99645.72;12213042;19;20643;-79
2022/10/20 17:52:46;;;;;;;39.53;17.40;;;;;;;14.57;100.00;99621.31;12185047;19;20027;-78
2022/10/20 17:56:51;;;;;;;34.83;17.13;;;;;;;14.59;100.00;99613.53;12204890;19;20681;-78
2022/10/20 18:00:52;;;;;;;36.55;18.25;;;;;;;14.61;100.00;99604.13;12204827;19;20423;-78
2022/10/20 18:04:58;;;;;;;33.00;16.90;;;;;;;14.57;100.00;99579.72;12184315;19;20018;-78
2022/10/20 18:09:06;;;;;;;35.80;17.85;;;;;;;14.57;100.00;99540.91;12209361;19;20018;-78
2022/10/20 18:13:08;;;;;;;39.20;17.88;;;;;;;14.49;100.00;99552.53;12246386;19;20586;-78
2022/10/20 18:17:09;;;;;;;38.85;18.27;;;;;;;14.50;100.00;99572.78;12232042;19;20102;-79
2022/10/20 18:21:13;;;;;;;35.85;17.10;;;;;;;14.51;100.00;99575.28;12216580;19;20038;-79
2022/10/20 18:25:15;;;;;;;38.05;18.63;;;;;;;14.52;100.00;99549.22;12209315;19;20349;-80
2022/10/20 18:29:16;;;;;;;35.10;17.20;;;;;;;14.53;100.00;99520.38;12214643;19;20026;-80
2022/10/20 18:33:18;;;;;;;36.33;16.55;;;;;;;14.56;100.00;99524.53;12216374;19;20039;-81
2022/10/20 18:37:20;;;;;;;35.92;16.92;;;;;;;14.59;100.00;99588.56;12187149;19;20026;-80